Time;durP1;ratioP1;P1;durP2;ratioP2;P2;SDS_P1;SDS_P2;PMS_P1;PMS_P2;Temp;Humidity;BMP_temperature;BMP_pressure;BME280_temperature;BME280_humidity;BME280_pressure;Samples;Min_cycle;Max_cycle;Signal;HPM_P1;HPM_P2
2024/01/21 00:01:53;;;;;;;20.10;7.60;;;;;;;-1.38;95.97;100744.75;103895;1285;60547;-30
2024/01/21 00:04:19;;;;;;;16.70;6.60;;;;;;;-1.41;96.07;100741.59;103978;1282;60447;-32
2024/01/21 00:06:45;;;;;;;15.00;6.70;;;;;;;-1.31;95.92;100748.26;103798;1285;60565;-32
2024/01/21 00:09:11;;;;;;;10.50;5.20;;;;;;;-1.29;95.32;100752.14;103832;1283;60565;-31
2024/01/21 00:11:36;;;;;;;37.00;11.00;;;;;;;-1.32;95.16;100751.59;103673;1283;60707;-32
2024/01/21 00:14:02;;;;;;;25.50;8.80;;;;;;;-1.49;95.87;100753.59;103785;1282;60565;-30
2024/01/21 00:16:27;;;;;;;22.00;8.40;;;;;;;-1.51;96.67;100758.63;104059;1283;60510;-37
2024/01/21 00:18:53;;;;;;;26.60;8.70;;;;;;;-1.55;97.42;100759.78;103652;1283;71873;-34
2024/01/21 00:21:19;;;;;;;25.10;8.10;;;;;;;-1.44;97.51;100764.95;103781;1282;60460;-31
2024/01/21 00:23:46;;;;;;;24.30;7.20;;;;;;;-1.47;97.29;100761.05;103852;1286;60516;-31
2024/01/21 00:26:12;;;;;;;24.30;8.30;;;;;;;-1.47;96.60;100767.55;103796;1283;60591;-31
2024/01/21 00:28:38;;;;;;;24.50;8.60;;;;;;;-1.48;96.67;100767.61;103998;1282;60549;-31
2024/01/21 00:31:05;;;;;;;25.90;7.90;;;;;;;-1.48;96.74;100773.91;103815;1285;60437;-31
2024/01/21 00:33:31;;;;;;;21.80;8.20;;;;;;;-1.39;96.61;100779.06;103792;1285;60584;-32
2024/01/21 00:35:56;;;;;;;;;;;;;;;-1.45;96.67;100781.84;103828;1281;60440;-31
2024/01/21 00:38:22;;;;;;;18.50;6.60;;;;;;;-1.43;96.85;100783.48;103879;1285;60642;-31
2024/01/21 00:40:48;;;;;;;21.30;8.00;;;;;;;-1.45;96.59;100782.21;103917;1283;60494;-35
2024/01/21 00:43:14;;;;;;;23.50;8.90;;;;;;;-1.41;96.80;100780.02;103885;1283;61996;-32
2024/01/21 00:45:39;;;;;;;24.30;9.20;;;;;;;-1.43;96.53;100781.73;103816;1283;60561;-32
2024/01/21 00:48:05;;;;;;;19.30;6.60;;;;;;;-1.43;96.21;100782.43;103864;1283;60485;-32
2024/01/21 00:50:31;;;;;;;;;;;;;;;-1.40;96.21;100782.80;103961;1283;60504;-32
2024/01/21 00:52:57;;;;;;;22.20;7.30;;;;;;;-1.43;96.65;100779.45;103900;1283;60561;-31
2024/01/21 00:55:23;;;;;;;20.50;8.10;;;;;;;-1.36;96.34;100781.18;103794;1283;60486;-33
2024/01/21 00:57:48;;;;;;;20.20;8.00;;;;;;;-1.37;96.51;100790.36;103832;1283;60573;-29
2024/01/21 01:00:15;;;;;;;21.20;7.70;;;;;;;-1.35;96.89;100797.13;103813;1285;60478;-29
2024/01/21 01:02:40;;;;;;;25.30;8.90;;;;;;;-1.29;96.86;100800.10;103633;1288;60571;-31
2024/01/21 01:05:06;;;;;;;23.90;8.70;;;;;;;-1.25;97.17;100800.41;103831;1286;60544;-33
2024/01/21 01:07:32;;;;;;;;;;;;;;;-1.30;96.50;100803.70;103968;1283;60579;-33
2024/01/21 01:09:58;;;;;;;21.40;8.20;;;;;;;-1.28;96.97;100807.07;103935;1282;60565;-30
2024/01/21 01:12:24;;;;;;;22.30;7.10;;;;;;;-1.19;96.91;100804.80;103895;1283;73038;-31
2024/01/21 01:14:49;;;;;;;26.10;7.50;;;;;;;-1.28;96.41;100808.13;103837;1283;60561;-31
2024/01/21 01:17:15;;;;;;;20.00;7.00;;;;;;;-1.31;96.31;100804.45;103809;1285;60572;-30
2024/01/21 01:19:41;;;;;;;12.40;4.30;;;;;;;-1.24;95.76;100805.26;103902;1285;60558;-31
2024/01/21 01:22:07;;;;;;;19.00;6.60;;;;;;;-1.28;95.87;100805.68;103891;1285;60590;-31
2024/01/21 01:24:33;;;;;;;29.10;9.10;;;;;;;-1.36;95.85;100805.92;103892;1285;60564;-33
2024/01/21 01:26:59;;;;;;;;;;;;;;;-1.39;96.78;100806.10;103773;1286;60600;-30
2024/01/21 01:29:24;;;;;;;25.50;8.70;;;;;;;-51.99;57.44;60481.14;102227;1283;1003000;-32
2024/01/21 01:31:50;;;;;;;16.60;7.20;;;;;;;-128.00;-1.00;-1.00;100203;1283;1047437;-32
2024/01/21 01:34:15;;;;;;;26.90;9.60;;;;;;;-128.00;-1.00;-1.00;100327;1281;1003594;-33
2024/01/21 01:36:41;;;;;;;22.30;8.10;;;;;;;-128.00;-1.00;-1.00;100279;1283;1005000;-30
2024/01/21 01:39:07;;;;;;;16.70;7.10;;;;;;;-128.00;-1.00;-1.00;100337;1283;1004601;-30
2024/01/21 01:41:33;;;;;;;25.10;7.00;;;;;;;-128.00;-1.00;-1.00;100201;1283;1005006;-32
2024/01/21 01:43:58;;;;;;;21.60;8.50;;;;;;;-128.00;-1.00;-1.00;100250;1283;1060423;-32
2024/01/21 01:46:24;;;;;;;24.30;8.40;;;;;;;-128.00;-1.00;-1.00;100241;1284;1004379;-33
2024/01/21 01:48:50;;;;;;;22.00;8.00;;;;;;;-128.00;-1.00;-1.00;100265;1283;1005013;-33
2024/01/21 01:51:15;;;;;;;16.60;5.10;;;;;;;-128.00;-1.00;-1.00;100368;1285;1004952;-31
2024/01/21 02:34:09;;;;;;;24.20;8.70;;;;;;;-1.66;100.00;100816.21;103585;1285;612966;-33
2024/01/21 02:36:35;;;;;;;28.80;8.80;;;;;;;-1.55;100.00;100813.17;103410;1282;315230;-32
2024/01/21 02:39:00;;;;;;;19.30;7.70;;;;;;;-1.59;100.00;100814.08;103857;1283;59364;-31
2024/01/21 02:41:26;;;;;;;24.70;8.50;;;;;;;-1.49;100.00;100817.02;103702;1282;59394;-34
2024/01/21 02:43:51;;;;;;;23.80;8.20;;;;;;;-1.49;100.00;100818.62;103630;1282;59345;-32
2024/01/21 02:46:18;;;;;;;19.00;8.20;;;;;;;-1.48;100.00;100822.73;103714;1283;59302;-33
2024/01/21 02:48:43;;;;;;;18.40;7.00;;;;;;;-1.39;100.00;100829.65;103784;1285;59381;-30
2024/01/21 02:51:13;;;;;;;;;;;;;;;-1.35;100.00;100829.11;103808;1282;59222;-34
2024/01/21 02:53:41;;;;;;;23.50;8.00;;;;;;;-1.22;100.00;100834.48;103777;1283;59374;-34
2024/01/21 02:56:07;;;;;;;23.40;7.50;;;;;;;-1.21;99.99;100838.33;103827;1282;71550;-31
2024/01/21 02:58:33;;;;;;;25.50;7.90;;;;;;;-1.18;99.94;100842.00;103765;1282;59682;-30
2024/01/21 03:00:58;;;;;;;21.10;7.10;;;;;;;-1.14;99.75;100839.18;103764;1283;59752;-33
2024/01/21 03:03:24;;;;;;;20.10;7.10;;;;;;;-1.14;99.72;100839.34;103875;1282;60158;-32
2024/01/21 03:05:49;;;;;;;22.10;7.20;;;;;;;-1.18;99.33;100836.39;103782;1282;59762;-34
2024/01/21 03:08:15;;;;;;;17.90;6.80;;;;;;;-1.22;98.92;100839.80;103704;1281;59787;-31
2024/01/21 03:10:41;;;;;;;25.40;7.60;;;;;;;-1.20;98.49;100840.71;103697;1282;59803;-31
2024/01/21 03:13:07;;;;;;;22.50;7.10;;;;;;;-1.24;98.52;100843.55;103884;1285;59806;-32
2024/01/21 03:15:33;;;;;;;26.30;8.10;;;;;;;-1.23;98.46;100842.48;103783;1285;59768;-31
2024/01/21 03:17:59;;;;;;;19.50;7.20;;;;;;;-1.19;98.29;100842.09;103805;1282;59752;-31
2024/01/21 03:20:25;;;;;;;21.50;6.00;;;;;;;-1.25;98.28;100841.73;103755;1281;59813;-32
2024/01/21 03:22:50;;;;;;;20.80;7.30;;;;;;;-1.33;98.53;100837.95;103680;1285;59775;-30
2024/01/21 03:25:16;;;;;;;20.20;7.40;;;;;;;-1.25;98.66;100837.98;103747;1285;59758;-32
2024/01/21 03:27:42;;;;;;;17.70;7.20;;;;;;;-1.23;98.46;100840.55;103914;1283;59755;-31
2024/01/21 03:30:08;;;;;;;18.80;7.40;;;;;;;-1.22;98.92;100840.44;103684;1283;59738;-30
2024/01/21 03:32:34;;;;;;;19.50;6.70;;;;;;;-1.11;98.61;100844.62;103787;1281;59679;-32
2024/01/21 03:34:59;;;;;;;24.90;7.50;;;;;;;-1.14;98.49;100846.94;103742;1282;59759;-33
2024/01/21 03:37:25;;;;;;;22.00;8.00;;;;;;;-1.13;98.53;100849.99;103655;1282;68361;-31
2024/01/21 03:39:51;;;;;;;23.20;8.20;;;;;;;-1.11;98.91;100855.52;103707;1285;59674;-32
2024/01/21 03:42:17;;;;;;;23.40;8.70;;;;;;;-1.10;98.68;100855.09;103838;1282;59708;-34
2024/01/21 03:44:42;;;;;;;18.90;7.30;;;;;;;-1.06;98.29;100853.27;103695;1283;59692;-32
2024/01/21 03:47:08;;;;;;;21.50;7.70;;;;;;;-1.07;98.05;100857.05;103662;1282;60414;-30
2024/01/21 03:49:34;;;;;;;18.80;7.80;;;;;;;-1.13;98.47;100858.27;103788;1282;59767;-33
2024/01/21 03:51:59;;;;;;;21.80;8.00;;;;;;;-1.08;98.52;100860.78;103736;1282;59732;-33
2024/01/21 03:54:25;;;;;;;18.70;7.00;;;;;;;-1.05;98.15;100863.94;103693;1285;59762;-32
2024/01/21 03:56:51;;;;;;;21.90;7.50;;;;;;;-1.04;98.35;100866.17;103772;1285;59679;-31
2024/01/21 03:59:16;;;;;;;24.30;7.80;;;;;;;-0.99;97.91;100864.64;103708;1281;59697;-31
2024/01/21 04:01:43;;;;;;;17.10;7.00;;;;;;;-1.01;97.81;100866.34;103635;1283;59717;-32
2024/01/21 04:04:11;;;;;;;16.90;7.50;;;;;;;-1.01;97.97;100869.36;103711;1282;68388;-32
2024/01/21 04:06:40;;;;;;;17.90;7.90;;;;;;;-0.94;97.46;100865.83;103665;1283;72980;-31
2024/01/21 04:09:05;;;;;;;17.60;7.20;;;;;;;-1.06;97.42;100863.86;103886;1283;59592;-33
2024/01/21 04:11:31;;;;;;;19.10;7.20;;;;;;;-1.11;97.69;100861.64;103724;1282;59701;-33
2024/01/21 04:13:56;;;;;;;20.80;7.20;;;;;;;-1.19;98.13;100856.63;103752;1283;59770;-35
2024/01/21 04:16:22;;;;;;;16.40;7.40;;;;;;;-1.19;98.83;100850.13;103737;1282;59764;-32
2024/01/21 04:18:47;;;;;;;23.00;7.80;;;;;;;-1.12;98.84;100851.33;103680;1282;59811;-33
2024/01/21 04:21:13;;;;;;;18.70;8.10;;;;;;;-1.08;97.79;100855.52;103690;1283;59756;-33
2024/01/21 04:23:40;;;;;;;23.90;7.90;;;;;;;-1.19;98.77;100857.19;103753;1282;59641;-31
2024/01/21 04:26:06;;;;;;;20.60;8.40;;;;;;;-1.09;98.22;100853.14;103829;1281;59636;-31
2024/01/21 04:28:31;;;;;;;20.80;7.70;;;;;;;-1.19;97.80;100855.06;103726;1282;59574;-32
2024/01/21 04:30:57;;;;;;;19.80;8.00;;;;;;;-1.25;98.63;100854.52;103736;1282;59663;-31
2024/01/21 04:33:22;;;;;;;24.80;7.80;;;;;;;-1.20;98.87;100852.70;103708;1285;59775;-32
2024/01/21 04:35:48;;;;;;;27.20;9.80;;;;;;;-1.16;98.98;100854.56;103809;1285;59758;-34
2024/01/21 04:38:14;;;;;;;25.00;8.30;;;;;;;-1.17;99.33;100855.99;103759;1285;59778;-33
2024/01/21 04:40:39;;;;;;;24.90;9.10;;;;;;;-1.15;99.23;100859.63;103818;1282;60747;-36
2024/01/21 04:43:05;;;;;;;21.10;8.70;;;;;;;-1.18;99.45;100863.60;103717;1281;68052;-32
2024/01/21 04:45:30;;;;;;;23.20;8.50;;;;;;;-1.16;99.68;100864.40;103755;1285;60220;-31
2024/01/21 04:47:56;;;;;;;23.10;8.70;;;;;;;-1.12;99.78;100861.58;103619;1287;59784;-31
2024/01/21 04:50:22;;;;;;;24.30;9.30;;;;;;;-1.10;99.76;100861.09;103664;1281;59787;-33
2024/01/21 04:52:47;;;;;;;21.70;9.20;;;;;;;-1.09;99.46;100856.79;103724;1282;59759;-32
2024/01/21 04:55:13;;;;;;;22.10;8.80;;;;;;;-1.10;99.31;100854.38;103650;1282;59752;-31
2024/01/21 04:57:39;;;;;;;23.20;8.20;;;;;;;-1.11;99.47;100854.09;103734;1282;60318;-33
2024/01/21 05:00:05;;;;;;;20.00;8.80;;;;;;;-1.08;99.68;100856.56;103704;1285;59787;-32
2024/01/21 05:02:31;;;;;;;27.50;8.40;;;;;;;-1.04;99.86;100852.51;103688;1282;59717;-30
2024/01/21 05:04:57;;;;;;;22.90;9.70;;;;;;;-1.05;99.72;100858.16;103632;1288;59892;-33
2024/01/21 05:07:22;;;;;;;20.60;8.30;;;;;;;-1.02;99.94;100860.79;103714;1285;59768;-32
2024/01/21 05:09:48;;;;;;;22.50;9.10;;;;;;;-0.96;99.99;100864.32;103774;1285;59685;-31
2024/01/21 05:12:14;;;;;;;23.60;9.70;;;;;;;-0.96;99.93;100866.78;103670;1283;59758;-32
2024/01/21 05:14:39;;;;;;;26.70;8.60;;;;;;;-0.93;99.78;100862.75;103647;1282;59759;-31
2024/01/21 05:17:05;;;;;;;21.90;8.90;;;;;;;-0.93;99.55;100862.23;103645;1281;59774;-31
2024/01/21 05:19:30;;;;;;;21.40;7.90;;;;;;;-0.95;99.38;100861.42;103678;1282;73410;-31
2024/01/21 05:21:56;;;;;;;17.60;7.40;;;;;;;-0.93;99.46;100863.31;103836;1283;59701;-31
2024/01/21 05:24:21;;;;;;;24.30;8.80;;;;;;;-0.95;99.55;100867.07;103601;1283;59755;-31
2024/01/21 05:26:47;;;;;;;21.50;8.70;;;;;;;-0.93;99.68;100865.91;103651;1285;59691;-31
2024/01/21 05:29:13;;;;;;;26.20;10.00;;;;;;;-0.90;99.59;100866.27;103687;1282;60225;-37
2024/01/21 05:31:38;;;;;;;25.30;9.80;;;;;;;-0.88;99.53;100864.77;103667;1288;59748;-33
2024/01/21 05:34:04;;;;;;;21.60;8.90;;;;;;;-0.87;99.20;100859.61;103858;1283;59724;-31
2024/01/21 05:36:29;;;;;;;21.60;9.60;;;;;;;-0.87;99.45;100857.14;103685;1283;73200;-31
2024/01/21 05:38:55;;;;;;;27.40;10.40;;;;;;;-0.87;99.07;100857.48;103671;1288;59711;-32
2024/01/21 05:41:21;;;;;;;23.80;9.50;;;;;;;-0.89;98.82;100859.22;103670;1285;59730;-31
2024/01/21 05:43:46;;;;;;;23.50;9.20;;;;;;;-0.87;98.76;100858.40;103647;1281;59762;-31
2024/01/21 05:46:12;;;;;;;25.10;9.80;;;;;;;-0.90;98.62;100855.75;103660;1282;59767;-30
2024/01/21 05:48:37;;;;;;;24.10;10.50;;;;;;;-0.87;98.92;100852.08;103699;1283;59777;-32
2024/01/21 05:51:03;;;;;;;34.60;12.00;;;;;;;-0.89;99.09;100848.09;103704;1283;59650;-32
2024/01/21 05:53:29;;;;;;;;;;;;;;;-0.87;99.17;100851.67;103766;1283;59759;-29
2024/01/21 05:55:54;;;;;;;39.50;12.30;;;;;;;-0.85;99.47;100860.88;103752;1283;59767;-32
2024/01/21 05:58:20;;;;;;;37.70;13.70;;;;;;;-0.81;99.52;100854.89;103686;1285;59785;-32
2024/01/21 06:00:45;;;;;;;34.00;11.60;;;;;;;-0.83;99.23;100857.45;103595;1283;59663;-31
2024/01/21 06:03:11;;;;;;;41.10;12.10;;;;;;;-0.87;98.71;100850.11;103703;1283;59769;-31
2024/01/21 06:05:37;;;;;;;47.60;14.00;;;;;;;-0.86;98.83;100852.00;103697;1282;60345;-31
2024/01/21 06:08:02;;;;;;;37.70;12.10;;;;;;;-0.84;99.20;100846.79;103689;1282;59641;-30
2024/01/21 06:10:28;;;;;;;36.50;11.50;;;;;;;-0.86;99.11;100850.58;103762;1282;59714;-32
2024/01/21 06:12:53;;;;;;;27.90;10.10;;;;;;;-0.89;99.05;100850.92;103722;1282;59774;-32
2024/01/21 06:15:19;;;;;;;37.90;10.50;;;;;;;-0.91;98.87;100853.15;103627;1285;59768;-33
2024/01/21 06:17:44;;;;;;;37.20;12.10;;;;;;;-0.89;99.24;100853.21;103772;1282;59668;-30
2024/01/21 06:20:11;;;;;;;47.20;15.00;;;;;;;-0.86;99.27;100855.89;103780;1283;59759;-32
2024/01/21 06:22:37;;;;;;;71.90;19.40;;;;;;;-0.86;99.47;100858.34;103735;1282;59646;-32
2024/01/21 06:25:03;;;;;;;87.40;24.00;;;;;;;-0.87;99.37;100858.05;103778;1283;59775;-32
2024/01/21 06:27:29;;;;;;;88.80;25.00;;;;;;;-0.87;99.43;100854.35;103718;1283;72807;-32
2024/01/21 06:29:55;;;;;;;;;;;;;;;-0.90;99.23;100854.83;103815;1285;59768;-30
2024/01/21 06:32:20;;;;;;;51.40;15.90;;;;;;;-0.96;99.28;100862.90;103650;1287;59774;-31
2024/01/21 06:34:46;;;;;;;42.20;14.10;;;;;;;-1.00;99.04;100862.80;103473;1288;59682;-32
2024/01/21 06:37:11;;;;;;;42.40;13.40;;;;;;;-1.06;99.05;100861.02;103686;1283;60584;-33
2024/01/21 06:39:37;;;;;;;33.50;11.60;;;;;;;-1.05;99.39;100865.21;103706;1283;61010;-31
2024/01/21 06:42:03;;;;;;;24.90;10.00;;;;;;;-1.09;99.24;100871.73;103684;1283;60641;-33
2024/01/21 06:44:28;;;;;;;;;;;;;;;-1.09;99.29;100869.42;103674;1282;60597;-32
2024/01/21 06:46:54;;;;;;;28.10;10.50;;;;;;;-1.09;99.52;100866.64;103711;1282;60577;-34
2024/01/21 06:49:20;;;;;;;24.70;9.70;;;;;;;-128.00;-1.00;-1.00;100228;1283;1003572;-36
2024/01/21 06:51:53;;;;;;;36.60;13.40;;;;;;;-128.00;-1.00;-1.00;100161;1283;1004646;-32
2024/01/21 06:54:19;;;;;;;30.90;12.10;;;;;;;-128.00;-1.00;-1.00;100132;1285;1058421;-30
2024/01/21 06:56:44;;;;;;;25.30;10.20;;;;;;;-128.00;-1.00;-1.00;100121;1283;1004617;-32
2024/01/21 06:59:10;;;;;;;27.50;11.30;;;;;;;-128.00;-1.00;-1.00;100240;1285;1004153;-30
2024/01/21 07:01:36;;;;;;;33.70;11.80;;;;;;;-128.00;-1.00;-1.00;100089;1282;1061354;-30
2024/01/21 07:04:01;;;;;;;30.60;11.80;;;;;;;-128.00;-1.00;-1.00;100157;1281;1004633;-32
2024/01/21 07:06:27;;;;;;;43.40;14.60;;;;;;;-128.00;-1.00;-1.00;100130;1285;1004898;-33
2024/01/21 07:08:53;;;;;;;36.40;13.60;;;;;;;-128.00;-1.00;-1.00;100144;1285;1005015;-32
2024/01/21 07:11:18;;;;;;;35.50;12.60;;;;;;;-128.00;-1.00;-1.00;100067;1283;1004347;-33
2024/01/21 07:13:44;;;;;;;38.60;13.70;;;;;;;-128.00;-1.00;-1.00;100179;1282;1004601;-31
2024/01/21 07:16:09;;;;;;;27.30;10.70;;;;;;;-128.00;-1.00;-1.00;100103;1283;1004416;-32
2024/01/21 07:18:35;;;;;;;26.50;11.20;;;;;;;-128.00;-1.00;-1.00;100127;1283;1005210;-30
2024/01/21 07:21:02;;;;;;;27.50;11.80;;;;;;;-128.00;-1.00;-1.00;100280;1282;1004521;-31
2024/01/21 07:23:28;;;;;;;31.60;11.40;;;;;;;-128.00;-1.00;-1.00;100163;1285;1060678;-33
2024/01/21 07:25:56;;;;;;;27.60;10.00;;;;;;;-128.00;-1.00;-1.00;100125;1282;1004346;-34
2024/01/21 07:28:21;;;;;;;63.90;24.30;;;;;;;-128.00;-1.00;-1.00;100094;1283;1004107;-33
2024/01/21 07:30:47;;;;;;;38.70;16.10;;;;;;;-128.00;-1.00;-1.00;100157;1282;1004526;-33
2024/01/21 07:33:12;;;;;;;48.30;22.70;;;;;;;-128.00;-1.00;-1.00;100083;1283;1046428;-32
2024/01/21 07:35:38;;;;;;;76.90;36.60;;;;;;;-128.00;-1.00;-1.00;100125;1283;1003944;-33
2024/01/21 07:38:04;;;;;;;67.60;33.40;;;;;;;-128.00;-1.00;-1.00;100145;1282;1005382;-32
2024/01/21 07:40:31;;;;;;;84.30;41.60;;;;;;;-128.00;-1.00;-1.00;100099;1282;1004615;-31
2024/01/21 07:42:57;;;;;;;321.30;164.30;;;;;;;-128.00;-1.00;-1.00;100072;1288;1004288;-31
2024/01/21 07:45:23;;;;;;;382.60;190.00;;;;;;;-128.00;-1.00;-1.00;100140;1281;1004588;-33
2024/01/21 07:47:50;;;;;;;179.30;90.30;;;;;;;-128.00;-1.00;-1.00;100214;1282;1004663;-36
2024/01/21 07:50:15;;;;;;;223.50;104.70;;;;;;;-128.00;-1.00;-1.00;100147;1285;1059018;-31
2024/01/21 07:52:42;;;;;;;84.90;36.90;;;;;;;-128.00;-1.00;-1.00;100160;1282;1004423;-30
2024/01/21 07:55:08;;;;;;;28.20;10.40;;;;;;;-128.00;-1.00;-1.00;100206;1282;1004105;-30
2024/01/21 07:57:34;;;;;;;25.40;9.60;;;;;;;-128.00;-1.00;-1.00;100149;1283;1004261;-31
2024/01/21 08:00:00;;;;;;;25.50;10.40;;;;;;;-128.00;-1.00;-1.00;100163;1283;1004927;-31
2024/01/21 08:02:27;;;;;;;28.50;11.50;;;;;;;-128.00;-1.00;-1.00;100157;1283;1058676;-31
2024/01/21 08:04:53;;;;;;;27.70;11.30;;;;;;;-128.00;-1.00;-1.00;100123;1283;1004756;-30
2024/01/21 08:07:19;;;;;;;;;;;;;;;-128.00;-1.00;-1.00;100147;1283;1004108;-30
2024/01/21 08:09:45;;;;;;;79.00;20.90;;;;;;;-128.00;-1.00;-1.00;100139;1283;1003929;-32
2024/01/21 08:12:10;;;;;;;96.30;21.70;;;;;;;-128.00;-1.00;-1.00;100093;1283;1056280;-32
2024/01/21 08:14:36;;;;;;;138.10;32.10;;;;;;;-128.00;-1.00;-1.00;100059;1283;1004343;-34
2024/01/21 08:17:02;;;;;;;105.90;23.70;;;;;;;-128.00;-1.00;-1.00;100165;1283;1005155;-34
2024/01/21 08:19:28;;;;;;;174.20;31.60;;;;;;;-128.00;-1.00;-1.00;100151;1282;1046725;-31
2024/01/21 08:21:54;;;;;;;350.00;81.60;;;;;;;-128.00;-1.00;-1.00;100141;1285;1005393;-31
2024/01/21 08:24:19;;;;;;;309.50;120.60;;;;;;;-128.00;-1.00;-1.00;100086;1283;1004397;-30
2024/01/21 08:26:45;;;;;;;376.30;128.80;;;;;;;-128.00;-1.00;-1.00;100207;1283;1014395;-30
2024/01/21 08:29:11;;;;;;;344.00;68.40;;;;;;;-128.00;-1.00;-1.00;100144;1285;1004392;-30
2024/01/21 08:31:43;;;;;;;153.30;35.90;;;;;;;-128.00;-1.00;-1.00;100166;1282;1004334;-31
2024/01/21 08:34:09;;;;;;;46.10;13.50;;;;;;;-128.00;-1.00;-1.00;100159;1282;1055694;-30
2024/01/21 08:36:35;;;;;;;45.70;12.20;;;;;;;-128.00;-1.00;-1.00;100056;1282;1004310;-30
2024/01/21 08:39:00;;;;;;;30.20;9.20;;;;;;;-128.00;-1.00;-1.00;100176;1284;1004843;-29
2024/01/21 08:41:26;;;;;;;39.80;12.10;;;;;;;-128.00;-1.00;-1.00;100197;1283;1004148;-31
2024/01/21 08:43:51;;;;;;;59.40;14.50;;;;;;;-128.00;-1.00;-1.00;100182;1282;1004429;-31
2024/01/21 08:46:17;;;;;;;220.80;71.90;;;;;;;-128.00;-1.00;-1.00;100247;1283;1004844;-30
2024/01/21 08:48:44;;;;;;;393.40;153.90;;;;;;;-128.00;-1.00;-1.00;100181;1282;1004861;-32
2024/01/21 08:51:09;;;;;;;163.60;52.20;;;;;;;-128.00;-1.00;-1.00;100102;1287;1003494;-32
2024/01/21 08:53:35;;;;;;;131.10;30.60;;;;;;;-128.00;-1.00;-1.00;100120;1285;1005006;-32
2024/01/21 08:56:00;;;;;;;87.00;18.80;;;;;;;-128.00;-1.00;-1.00;100221;1283;1004897;-33
2024/01/21 08:58:26;;;;;;;52.00;13.80;;;;;;;-128.00;-1.00;-1.00;100077;1285;1004567;-33
2024/01/21 09:00:52;;;;;;;45.50;12.90;;;;;;;-128.00;-1.00;-1.00;100099;1283;1004565;-31
2024/01/21 09:03:17;;;;;;;37.40;10.50;;;;;;;-128.00;-1.00;-1.00;100114;1288;1004771;-33
2024/01/21 09:05:43;;;;;;;41.90;10.60;;;;;;;-128.00;-1.00;-1.00;100172;1282;1060127;-31
2024/01/21 09:08:08;;;;;;;40.10;10.50;;;;;;;-128.00;-1.00;-1.00;100184;1287;1004728;-30
2024/01/21 09:10:34;;;;;;;32.60;10.20;;;;;;;-128.00;-1.00;-1.00;100147;1283;1005099;-29
2024/01/21 09:13:00;;;;;;;39.20;11.60;;;;;;;-128.00;-1.00;-1.00;100065;1283;1004919;-30
2024/01/21 09:15:25;;;;;;;;;;;;;;;-128.00;-1.00;-1.00;100170;1282;1005023;-30
2024/01/21 09:17:51;;;;;;;35.20;10.50;;;;;;;-128.00;-1.00;-1.00;100124;1282;1055987;-32
2024/01/21 09:20:17;;;;;;;22.60;9.60;;;;;;;-128.00;-1.00;-1.00;100180;1285;1004310;-32
2024/01/21 09:22:43;;;;;;;26.30;9.20;;;;;;;-128.00;-1.00;-1.00;100160;1285;1004433;-28
2024/01/21 09:25:08;;;;;;;32.80;10.80;;;;;;;-128.00;-1.00;-1.00;100116;1283;1047382;-33
2024/01/21 09:27:34;;;;;;;29.70;10.30;;;;;;;-128.00;-1.00;-1.00;100156;1282;1004591;-29
2024/01/21 09:30:00;;;;;;;24.90;9.80;;;;;;;-128.00;-1.00;-1.00;100097;1285;1005072;-33
2024/01/21 09:32:26;;;;;;;24.90;10.70;;;;;;;-128.00;-1.00;-1.00;100082;1283;1004128;-33
2024/01/21 09:34:51;;;;;;;24.90;10.10;;;;;;;-128.00;-1.00;-1.00;100215;1285;1004360;-32
2024/01/21 09:37:17;;;;;;;32.40;11.70;;;;;;;-128.00;-1.00;-1.00;100181;1283;1004336;-31
2024/01/21 09:39:43;;;;;;;63.30;19.10;;;;;;;-128.00;-1.00;-1.00;100193;1285;1056389;-30
2024/01/21 09:42:08;;;;;;;24.00;11.00;;;;;;;-128.00;-1.00;-1.00;100212;1282;1004505;-32
2024/01/21 09:44:34;;;;;;;37.40;12.80;;;;;;;-128.00;-1.00;-1.00;100065;1287;1045258;-33
2024/01/21 09:47:01;;;;;;;29.20;10.90;;;;;;;-128.00;-1.00;-1.00;100175;1282;1005083;-32
2024/01/21 09:49:27;;;;;;;25.70;11.90;;;;;;;-128.00;-1.00;-1.00;100127;1282;1005348;-32
2024/01/21 09:51:54;;;;;;;25.40;10.00;;;;;;;-128.00;-1.00;-1.00;100150;1282;1004665;-32
2024/01/21 09:54:20;;;;;;;;;;;;;;;-128.00;-1.00;-1.00;100138;1285;1004168;-31
2024/01/21 09:56:45;;;;;;;20.70;8.90;;;;;;;-128.00;-1.00;-1.00;100131;1283;1005447;-32
2024/01/21 09:59:12;;;;;;;23.20;9.50;;;;;;;-128.00;-1.00;-1.00;100124;1283;1005108;-29
2024/01/21 10:01:38;;;;;;;30.10;11.40;;;;;;;-128.00;-1.00;-1.00;100084;1283;1061098;-31
2024/01/21 10:04:04;;;;;;;46.30;15.70;;;;;;;-128.00;-1.00;-1.00;100194;1282;1005200;-31
2024/01/21 10:06:29;;;;;;;51.40;17.40;;;;;;;-128.00;-1.00;-1.00;100116;1281;1003929;-32
2024/01/21 10:09:26;;;;;;;33.00;14.60;;;;;;;-128.00;-1.00;-1.00;100088;1283;1004841;-34
2024/01/21 10:11:56;;;;;;;32.80;12.40;;;;;;;-128.00;-1.00;-1.00;100162;1282;1047303;-34
2024/01/21 10:14:25;;;;;;;36.50;13.20;;;;;;;-128.00;-1.00;-1.00;100151;1282;1060872;-32
2024/01/21 10:16:50;;;;;;;27.00;10.60;;;;;;;-128.00;-1.00;-1.00;100077;1283;1056400;-31
2024/01/21 10:19:31;;;;;;;31.70;12.20;;;;;;;-128.00;-1.00;-1.00;100087;1285;1004784;-31
2024/01/21 10:22:10;;;;;;;26.10;10.80;;;;;;;-128.00;-1.00;-1.00;100158;1282;1014732;-34
2024/01/21 10:24:46;;;;;;;30.10;12.60;;;;;;;-128.00;-1.00;-1.00;100208;1285;1044676;-32
2024/01/21 10:27:12;;;;;;;34.90;15.60;;;;;;;-128.00;-1.00;-1.00;100155;1285;1046531;-31
2024/01/21 10:29:41;;;;;;;28.00;12.40;;;;;;;-128.00;-1.00;-1.00;100123;1283;1004100;-31
2024/01/21 10:32:09;;;;;;;24.30;12.80;;;;;;;-128.00;-1.00;-1.00;100125;1282;1056399;-33
2024/01/21 10:34:35;;;;;;;29.60;13.30;;;;;;;-128.00;-1.00;-1.00;100177;1282;1004517;-32
2024/01/21 10:37:02;;;;;;;28.40;13.00;;;;;;;-128.00;-1.00;-1.00;100247;1282;1004925;-33
2024/01/21 10:39:28;;;;;;;22.90;10.40;;;;;;;-128.00;-1.00;-1.00;100166;1285;1004502;-33
2024/01/21 10:41:54;;;;;;;36.40;15.20;;;;;;;-128.00;-1.00;-1.00;100075;1282;1005161;-32
2024/01/21 10:44:19;;;;;;;59.50;22.50;;;;;;;-128.00;-1.00;-1.00;100135;1285;1004520;-32
2024/01/21 10:46:45;;;;;;;21.20;9.60;;;;;;;-128.00;-1.00;-1.00;100104;1283;1058453;-34
2024/01/21 10:49:11;;;;;;;31.20;13.50;;;;;;;-128.00;-1.00;-1.00;100125;1283;1004027;-31
2024/01/21 10:51:37;;;;;;;41.10;17.70;;;;;;;-128.00;-1.00;-1.00;100114;1288;1004294;-34
2024/01/21 10:54:03;;;;;;;30.80;13.80;;;;;;;-128.00;-1.00;-1.00;100248;1285;1005307;-32
2024/01/21 10:56:29;;;;;;;;;;;;;;;-128.00;-1.00;-1.00;100149;1283;1004461;-31
2024/01/21 10:58:55;;;;;;;84.90;32.40;;;;;;;-128.00;-1.00;-1.00;100116;1283;1059584;-33
2024/01/21 11:01:20;;;;;;;63.60;25.40;;;;;;;-128.00;-1.00;-1.00;100093;1282;1004270;-32
2024/01/21 11:03:48;;;;;;;55.50;25.60;;;;;;;-128.00;-1.00;-1.00;100111;1285;1003787;-33
2024/01/21 11:06:14;;;;;;;33.00;15.30;;;;;;;-128.00;-1.00;-1.00;100293;1283;1060395;-33
2024/01/21 11:08:41;;;;;;;47.40;20.40;;;;;;;-128.00;-1.00;-1.00;100183;1282;1004433;-33
2024/01/21 11:11:15;;;;;;;76.60;29.20;;;;;;;-128.00;-1.00;-1.00;100192;1283;1003992;-31
2024/01/21 11:13:46;;;;;;;44.30;17.90;;;;;;;-128.00;-1.00;-1.00;100067;1285;1014348;-34
2024/01/21 11:16:35;;;;;;;69.40;27.50;;;;;;;-128.00;-1.00;-1.00;100243;1285;1044507;-32
2024/01/21 11:19:06;;;;;;;35.00;15.00;;;;;;;-128.00;-1.00;-1.00;100128;1288;1046354;-33
2024/01/21 11:21:34;;;;;;;104.60;37.80;;;;;;;-128.00;-1.00;-1.00;100159;1283;1060751;-32
2024/01/21 11:24:04;;;;;;;52.30;24.50;;;;;;;-128.00;-1.00;-1.00;100192;1286;1003668;-31
2024/01/21 11:26:30;;;;;;;135.70;46.40;;;;;;;-128.00;-1.00;-1.00;100156;1285;1058621;-36
2024/01/21 11:29:05;;;;;;;285.10;88.00;;;;;;;-128.00;-1.00;-1.00;99986;1283;1004671;-34
2024/01/21 11:31:32;;;;;;;251.00;79.80;;;;;;;-128.00;-1.00;-1.00;100124;1285;1045133;-33
2024/01/21 11:34:05;;;;;;;118.90;42.10;;;;;;;-128.00;-1.00;-1.00;100129;1285;1004058;-32
2024/01/21 11:36:32;;;;;;;339.10;94.50;;;;;;;-128.00;-1.00;-1.00;100287;1282;1060540;-34
2024/01/21 11:38:59;;;;;;;471.20;139.00;;;;;;;-128.00;-1.00;-1.00;100123;1285;1004632;-33
2024/01/21 11:41:41;;;;;;;246.70;65.80;;;;;;;-128.00;-1.00;-1.00;100073;1286;1004680;-34
2024/01/21 11:44:15;;;;;;;260.30;68.40;;;;;;;-128.00;-1.00;-1.00;100300;1283;1013545;-32